Time;durP1;ratioP1;P1;durP2;ratioP2;P2;SDS_P1;SDS_P2;PMS_P1;PMS_P2;Temp;Humidity;BMP_temperature;BMP_pressure;BME280_temperature;BME280_humidity;BME280_pressure;Samples;Min_cycle;Max_cycle;Signal;HPM_P1;HPM_P2
2022/09/01 00:01:27;;;;;;;3.80;3.50;;;;;;;16.90;100.00;96308.75;5007877;28;20208;-75
2022/09/01 00:03:58;;;;;;;4.70;3.50;;;;;;;16.88;100.00;96304.66;5002285;28;20212;-75
2022/09/01 00:06:25;;;;;;;3.63;3.33;;;;;;;16.97;100.00;96301.13;5016814;28;20371;-74
2022/09/01 00:08:55;;;;;;;3.50;3.20;;;;;;;16.92;100.00;96290.22;5006625;28;20203;-74
2022/09/01 00:11:24;;;;;;;7.53;3.60;;;;;;;16.93;100.00;96297.28;5030614;28;20207;-75
2022/09/01 00:13:54;;;;;;;6.33;3.03;;;;;;;16.95;100.00;96288.84;5021419;28;20207;-74
2022/09/01 00:16:21;;;;;;;10.13;3.13;;;;;;;16.97;100.00;96290.22;5002974;28;20212;-74
2022/09/01 00:18:52;;;;;;;5.93;3.03;;;;;;;17.03;100.00;96285.56;5031772;28;20211;-74
2022/09/01 00:21:23;;;;;;;4.03;2.97;;;;;;;16.99;100.00;96290.78;5003409;28;20261;-75
2022/09/01 00:23:50;;;;;;;3.70;3.00;;;;;;;16.93;100.00;96280.91;5011515;28;20203;-75
2022/09/01 00:26:18;;;;;;;3.17;2.90;;;;;;;16.90;100.00;96286.13;5003797;28;20210;-75
2022/09/01 00:28:45;;;;;;;4.53;3.17;;;;;;;16.81;100.00;96283.13;5001495;28;20235;-75
2022/09/01 00:31:14;;;;;;;3.40;2.87;;;;;;;16.77;100.00;96292.91;5002913;28;20208;-75
2022/09/01 00:33:42;;;;;;;3.60;2.90;;;;;;;16.79;100.00;96284.47;5008026;28;20278;-74
2022/09/01 00:36:09;;;;;;;4.90;3.23;;;;;;;16.78;100.00;96285.53;5004847;28;20307;-75
2022/09/01 00:38:38;;;;;;;6.80;3.30;;;;;;;16.74;100.00;96292.66;5008212;28;20235;-74
2022/09/01 00:41:06;;;;;;;6.50;3.40;;;;;;;16.70;100.00;96288.81;5008065;28;20199;-75
2022/09/01 00:43:39;;;;;;;4.67;3.20;;;;;;;16.70;100.00;96286.09;5021136;28;20341;-74
2022/09/01 00:46:09;;;;;;;5.37;3.43;;;;;;;16.69;100.00;96281.72;5004331;28;20298;-75
2022/09/01 00:48:37;;;;;;;3.67;3.37;;;;;;;16.71;100.00;96277.63;5003809;28;20286;-75
2022/09/01 00:51:07;;;;;;;3.33;3.03;;;;;;;16.75;100.00;96278.75;5019950;28;20299;-74
2022/09/01 00:53:35;;;;;;;3.60;3.00;;;;;;;16.69;100.00;96282.53;5021967;28;20208;-74
2022/09/01 00:56:03;;;;;;;2.80;2.50;;;;;;;16.63;100.00;96281.72;5019149;28;20231;-74
2022/09/01 00:58:31;;;;;;;3.37;2.87;;;;;;;16.61;100.00;96272.97;5017867;28;20247;-75
2022/09/01 01:00:58;;;;;;;4.50;3.30;;;;;;;16.64;100.00;96277.91;5006729;28;20219;-74
2022/09/01 01:03:25;;;;;;;5.17;3.00;;;;;;;16.66;100.00;96279.53;5021801;28;20203;-75
2022/09/01 01:05:57;;;;;;;3.60;3.30;;;;;;;16.70;100.00;96277.91;5012671;28;20214;-75
2022/09/01 01:08:32;;;;;;;3.90;3.23;;;;;;;16.73;100.00;96280.09;5003968;28;20246;-74
2022/09/01 01:11:01;;;;;;;3.43;3.00;;;;;;;16.77;100.00;96283.91;5016709;28;20239;-75
2022/09/01 01:13:30;;;;;;;3.93;2.93;;;;;;;16.79;100.00;96285.28;5012737;28;20207;-75
2022/09/01 01:15:59;;;;;;;4.00;2.83;;;;;;;16.78;100.00;96285.53;5004122;28;20222;-75
2022/09/01 01:18:26;;;;;;;5.13;3.23;;;;;;;16.72;100.00;96281.19;5022591;28;20908;-74
2022/09/01 01:23:56;;;;;;;4.10;3.03;;;;;;;16.48;100.00;96278.94;5007139;28;20199;-74
2022/09/01 01:26:24;;;;;;;3.97;3.50;;;;;;;16.53;100.00;96278.94;5020232;28;20214;-75
2022/09/01 01:28:53;;;;;;;6.33;3.63;;;;;;;16.55;100.00;96278.66;5014411;28;20204;-75
2022/09/01 01:31:22;;;;;;;3.53;3.23;;;;;;;16.54;100.00;96277.84;5016006;28;20313;-74
2022/09/01 01:33:52;;;;;;;4.63;3.30;;;;;;;16.47;100.00;96266.41;5019775;28;20278;-74
2022/09/01 01:36:31;;;;;;;4.33;3.50;;;;;;;16.44;100.00;96272.38;5022866;28;20210;-74
2022/09/01 01:39:02;;;;;;;4.17;3.77;;;;;;;16.41;100.00;96278.38;5016116;28;20230;-75
2022/09/01 01:41:33;;;;;;;6.57;3.47;;;;;;;16.40;100.00;96271.28;5018158;28;20203;-75
2022/09/01 01:44:03;;;;;;;4.10;3.30;;;;;;;16.40;100.00;96278.66;5000065;28;20295;-74
2022/09/01 01:46:32;;;;;;;3.97;3.57;;;;;;;16.38;100.00;96281.63;5015952;28;20213;-74
2022/09/01 01:49:01;;;;;;;3.90;3.53;;;;;;;16.34;100.00;96285.16;5019454;28;20215;-74
2022/09/01 01:51:31;;;;;;;6.63;3.67;;;;;;;16.33;100.00;96280.81;5017182;28;20218;-74
2022/09/01 01:54:04;;;;;;;5.30;3.67;;;;;;;16.34;100.00;96287.88;5005272;28;20231;-74
2022/09/01 01:56:38;;;;;;;4.20;3.50;;;;;;;16.36;100.00;96291.97;5017626;28;20310;-74
2022/09/01 01:59:06;;;;;;;6.60;3.77;;;;;;;16.39;100.00;96280.53;5018208;28;20306;-75
2022/09/01 02:01:33;;;;;;;6.43;3.40;;;;;;;16.37;100.00;96282.72;5001136;28;20230;-74
2022/09/01 02:04:03;;;;;;;3.30;3.00;;;;;;;16.40;100.00;96279.47;5014931;28;20204;-74
2022/09/01 02:06:34;;;;;;;3.30;3.00;;;;;;;16.40;100.00;96278.66;5021907;28;20215;-74
2022/09/01 02:09:02;;;;;;;5.97;3.13;;;;;;;16.36;100.00;96275.63;5004720;28;20270;-75
2022/09/01 02:11:32;;;;;;;4.67;3.33;;;;;;;16.38;100.00;96278.09;5017446;28;20298;-74
2022/09/01 02:14:01;;;;;;;3.43;2.90;;;;;;;16.41;100.00;96278.38;4998725;28;20229;-74
2022/09/01 02:16:32;;;;;;;4.40;2.80;;;;;;;16.33;100.00;96268.00;5017725;28;20524;-75
2022/09/01 02:19:01;;;;;;;4.10;3.13;;;;;;;16.32;100.00;96263.63;5016122;28;20231;-75
2022/09/01 02:21:29;;;;;;;4.20;3.10;;;;;;;16.36;100.00;96275.63;5019397;28;20212;-74
2022/09/01 02:23:59;;;;;;;5.63;3.27;;;;;;;16.34;100.00;96272.34;5003835;28;20194;-74
2022/09/01 02:26:30;;;;;;;3.10;2.80;;;;;;;16.30;100.00;96260.34;5017963;28;20211;-74
2022/09/01 02:29:00;;;;;;;3.90;3.50;;;;;;;16.29;100.00;96269.63;5019408;28;20207;-74
2022/09/01 02:31:30;;;;;;;4.63;2.77;;;;;;;16.22;100.00;96269.06;5018122;28;20212;-75
2022/09/01 02:34:00;;;;;;;4.63;3.40;;;;;;;16.25;100.00;96268.50;4999921;28;20214;-74
2022/09/01 02:36:31;;;;;;;4.80;3.10;;;;;;;16.23;100.00;96262.53;5001875;28;20221;-74
2022/09/01 02:38:58;;;;;;;4.13;2.83;;;;;;;16.24;100.00;96264.16;5020533;28;20263;-75
2022/09/01 02:41:27;;;;;;;4.40;2.90;;;;;;;16.27;100.00;96266.34;5017863;28;20257;-74
2022/09/01 02:43:55;;;;;;;4.20;3.00;;;;;;;16.30;100.00;96271.25;4996644;28;20303;-75
2022/09/01 02:46:23;;;;;;;8.30;3.23;;;;;;;16.24;100.00;96269.59;5014525;28;20213;-74
2022/09/01 02:48:53;;;;;;;3.80;3.00;;;;;;;16.23;100.00;96273.41;5006336;28;20203;-74
2022/09/01 02:51:24;;;;;;;4.37;3.30;;;;;;;16.26;100.00;96273.69;5018317;28;20234;-75
2022/09/01 02:53:52;;;;;;;3.73;2.90;;;;;;;16.28;100.00;96273.44;5019570;28;20295;-74
2022/09/01 02:56:21;;;;;;;5.10;2.80;;;;;;;16.30;100.00;96273.97;5012496;28;20223;-74
2022/09/01 02:58:50;;;;;;;8.00;3.23;;;;;;;16.31;100.00;96270.19;5004810;28;20251;-74
2022/09/01 03:01:23;;;;;;;3.70;3.00;;;;;;;16.30;100.00;96273.97;5013655;28;20298;-74
2022/09/01 03:03:55;;;;;;;4.23;2.87;;;;;;;16.32;100.00;96276.44;5017577;28;20215;-74
2022/09/01 03:06:23;;;;;;;6.10;3.73;;;;;;;16.35;100.00;96267.72;5021784;28;20296;-75
2022/09/01 03:08:52;;;;;;;6.27;3.43;;;;;;;16.35;100.00;96265.81;5001956;28;20212;-74
2022/09/01 03:11:19;;;;;;;6.97;3.63;;;;;;;16.32;100.00;96254.66;4999591;28;20211;-74
2022/09/01 03:13:46;;;;;;;4.77;3.63;;;;;;;16.34;100.00;96261.44;5006186;28;20218;-74
2022/09/01 03:16:14;;;;;;;4.40;3.20;;;;;;;16.33;100.00;96268.00;5011189;28;20230;-74
2022/09/01 03:18:42;;;;;;;6.27;3.87;;;;;;;16.33;100.00;96272.63;5021001;28;20242;-74
2022/09/01 03:21:16;;;;;;;6.90;3.63;;;;;;;16.32;100.00;96260.09;5006059;28;20247;-75
2022/09/01 03:23:45;;;;;;;4.90;3.50;;;;;;;16.34;100.00;96269.63;5023201;28;20253;-74
2022/09/01 03:26:13;;;;;;;4.77;3.57;;;;;;;16.36;100.00;96269.34;5003046;28;20216;-75
2022/09/01 03:28:41;;;;;;;4.40;3.63;;;;;;;16.35;100.00;96271.25;5002545;28;20204;-74
2022/09/01 03:31:09;;;;;;;3.53;3.23;;;;;;;16.34;100.00;96266.06;5023506;28;20234;-74
2022/09/01 03:33:37;;;;;;;6.03;3.60;;;;;;;16.32;100.00;96260.09;5006198;28;20214;-74
2022/09/01 03:36:06;;;;;;;7.93;3.50;;;;;;;16.30;100.00;96259.53;5024853;28;20277;-74
2022/09/01 03:38:35;;;;;;;5.20;4.17;;;;;;;16.34;100.00;96257.91;5003970;28;20243;-74
2022/09/01 03:41:05;;;;;;;5.40;3.70;;;;;;;16.37;100.00;96260.91;5002152;28;20200;-74
2022/09/01 03:43:34;;;;;;;4.27;3.53;;;;;;;16.34;100.00;96257.91;5006122;28;20222;-74
2022/09/01 03:46:01;;;;;;;5.90;3.70;;;;;;;16.35;100.00;96265.81;5024356;28;20210;-74
2022/09/01 03:48:30;;;;;;;3.80;3.40;;;;;;;16.38;100.00;96259.00;5004462;28;20210;-74
2022/09/01 03:51:01;;;;;;;3.60;3.03;;;;;;;16.34;100.00;96256.00;5020588;28;20207;-74
2022/09/01 03:53:32;;;;;;;4.63;3.70;;;;;;;16.31;100.00;96253.81;5020056;28;20214;-74
2022/09/01 03:56:02;;;;;;;4.80;3.60;;;;;;;16.25;100.00;96252.16;5015539;28;20293;-74
2022/09/01 03:58:32;;;;;;;6.67;3.33;;;;;;;16.19;100.00;96250.50;4998388;28;20266;-75
2022/09/01 04:01:01;;;;;;;5.63;3.50;;;;;;;16.17;100.00;96252.66;5005411;28;20204;-74
2022/09/01 04:03:31;;;;;;;6.37;3.87;;;;;;;16.12;100.00;96252.66;5021595;28;20226;-74
2022/09/01 04:06:01;;;;;;;3.93;3.30;;;;;;;16.14;100.00;96258.69;5022899;28;20286;-74
2022/09/01 04:08:29;;;;;;;3.97;3.00;;;;;;;16.11;100.00;96249.13;5020156;28;20215;-75
2022/09/01 04:10:59;;;;;;;5.03;3.47;;;;;;;16.10;100.00;96250.22;5018874;28;20199;-74
2022/09/01 04:13:30;;;;;;;5.87;3.47;;;;;;;16.12;100.00;96247.22;5014741;28;20216;-74
2022/09/01 04:15:58;;;;;;;4.27;3.10;;;;;;;16.17;100.00;96247.22;5006387;28;20199;-74
2022/09/01 04:18:25;;;;;;;3.43;3.10;;;;;;;16.18;100.00;96243.41;5020130;28;20241;-75
2022/09/01 04:20:55;;;;;;;6.87;3.77;;;;;;;16.14;100.00;96247.78;5004699;28;20239;-74
2022/09/01 04:23:26;;;;;;;3.50;3.03;;;;;;;16.12;100.00;96244.50;4998818;28;20296;-73
2022/09/01 04:25:58;;;;;;;3.47;3.17;;;;;;;16.12;100.00;96244.50;5001601;28;20208;-74
2022/09/01 04:28:33;;;;;;;6.00;3.23;;;;;;;16.11;100.00;96242.84;5021372;28;20207;-73
2022/09/01 04:31:06;;;;;;;5.33;3.10;;;;;;;16.09;100.00;96247.75;4996992;28;20237;-73
2022/09/01 04:33:38;;;;;;;5.83;3.47;;;;;;;16.07;100.00;96239.03;5020700;28;20211;-73
2022/09/01 04:36:18;;;;;;;4.80;2.83;;;;;;;16.05;100.00;96252.94;5026817;28;20241;-73
2022/09/01 04:38:46;;;;;;;4.37;3.30;;;;;;;16.00;100.00;96244.72;5007318;28;20254;-74
2022/09/01 04:41:16;;;;;;;3.30;3.00;;;;;;;15.95;100.00;96243.91;5005475;28;20203;-74
2022/09/01 04:43:46;;;;;;;4.83;3.10;;;;;;;15.99;100.00;96242.28;5006374;28;20211;-73
2022/09/01 04:46:13;;;;;;;4.57;2.87;;;;;;;16.07;100.00;96245.31;5019454;28;20216;-73
2022/09/01 04:48:43;;;;;;;5.50;2.90;;;;;;;16.14;100.00;96245.06;5019958;28;20195;-74
2022/09/01 04:51:12;;;;;;;3.10;2.80;;;;;;;16.16;100.00;96242.91;5022084;28;20338;-73
2022/09/01 04:54:11;;;;;;;4.17;2.83;;;;;;;16.21;100.00;96251.06;5001980;28;20342;-74
2022/09/01 04:56:39;;;;;;;4.30;2.73;;;;;;;16.20;100.00;96238.53;5018720;28;20241;-73
2022/09/01 04:59:14;;;;;;;3.83;3.23;;;;;;;16.20;100.00;96243.97;5002368;28;20287;-73
2022/09/01 05:01:45;;;;;;;5.87;3.20;;;;;;;16.21;100.00;96237.44;4999865;28;20209;-73
2022/09/01 05:04:19;;;;;;;4.07;2.87;;;;;;;16.24;100.00;96239.66;5018395;28;20211;-74
2022/09/01 05:06:49;;;;;;;4.17;3.27;;;;;;;16.24;100.00;96239.66;5002715;28;20196;-73
2022/09/01 05:09:19;;;;;;;4.00;2.97;;;;;;;16.15;100.00;96244.78;5020780;28;20272;-74
2022/09/01 05:12:09;;;;;;;8.57;3.67;;;;;;;16.04;100.00;96239.56;5022555;28;20210;-73
2022/09/01 05:14:41;;;;;;;4.17;3.30;;;;;;;16.03;100.00;96233.31;5017560;28;20207;-73
2022/09/01 05:17:10;;;;;;;4.53;3.20;;;;;;;16.01;100.00;96235.47;5014153;28;20314;-74
2022/09/01 05:19:42;;;;;;;5.23;3.57;;;;;;;15.97;100.00;96239.00;5002643;28;20219;-73
2022/09/01 05:22:12;;;;;;;3.40;3.10;;;;;;;15.97;100.00;96230.84;5019178;28;20211;-74
2022/09/01 05:24:42;;;;;;;3.63;3.27;;;;;;;15.91;100.00;96229.97;5018512;28;20281;-73
2022/09/01 05:27:11;;;;;;;6.13;3.43;;;;;;;15.96;100.00;96238.19;5002349;28;20207;-74
2022/09/01 05:29:40;;;;;;;8.43;3.33;;;;;;;16.01;100.00;96240.09;5014447;28;20206;-75
2022/09/01 05:32:08;;;;;;;4.47;3.00;;;;;;;15.97;100.00;96250.72;5001979;28;20283;-74
2022/09/01 05:34:38;;;;;;;6.37;3.17;;;;;;;15.98;100.00;96248.81;5020548;28;20764;-74
2022/09/01 05:37:08;;;;;;;4.07;2.80;;;;;;;16.02;100.00;96249.91;5003875;28;20204;-74
2022/09/01 05:39:38;;;;;;;6.07;3.23;;;;;;;16.05;100.00;96249.38;5024342;28;20222;-74
2022/09/01 05:42:07;;;;;;;6.87;3.20;;;;;;;16.06;100.00;96253.75;5002516;28;20219;-74
2022/09/01 05:44:35;;;;;;;4.43;3.57;;;;;;;16.08;100.00;96252.38;5002781;28;20208;-75
2022/09/01 05:47:05;;;;;;;9.90;4.30;;;;;;;16.08;100.00;96246.94;5016617;28;20215;-74
2022/09/01 05:49:33;;;;;;;4.57;3.80;;;;;;;16.07;100.00;96245.31;5002376;28;20219;-75
2022/09/01 05:52:03;;;;;;;3.77;3.20;;;;;;;16.02;100.00;96250.72;5003470;28;20214;-75
2022/09/01 05:54:31;;;;;;;5.20;3.50;;;;;;;16.02;100.00;96250.72;5017911;28;20216;-74
2022/09/01 05:56:59;;;;;;;7.97;3.23;;;;;;;16.03;100.00;96251.53;5005660;28;20255;-74
2022/09/01 05:59:30;;;;;;;6.47;3.57;;;;;;;16.03;100.00;96248.81;5019694;28;20258;-75
2022/09/01 06:02:11;;;;;;;8.43;3.93;;;;;;;15.97;100.00;96244.44;5019208;28;20204;-74
2022/09/01 06:04:40;;;;;;;7.13;3.97;;;;;;;16.02;100.00;96242.56;5002062;28;20208;-74
2022/09/01 06:07:13;;;;;;;5.07;3.50;;;;;;;16.05;100.00;96247.47;5020589;28;20243;-74
2022/09/01 06:09:45;;;;;;;6.17;3.60;;;;;;;16.06;100.00;96251.03;5003290;28;20234;-75
2022/09/01 06:12:17;;;;;;;4.60;3.30;;;;;;;16.09;100.00;96245.84;5012177;28;20283;-75
2022/09/01 06:14:46;;;;;;;4.40;3.50;;;;;;;16.12;100.00;96250.75;5016902;28;20225;-74
2022/09/01 06:17:20;;;;;;;3.63;3.00;;;;;;;16.17;100.00;96252.66;4995414;28;20224;-74
2022/09/01 06:19:48;;;;;;;4.83;3.13;;;;;;;16.12;100.00;96260.84;5017122;28;20234;-74
2022/09/01 06:22:16;;;;;;;6.90;3.33;;;;;;;16.19;100.00;96261.41;5014448;28;20211;-74
2022/09/01 06:24:44;;;;;;;4.37;3.50;;;;;;;16.17;100.00;96258.94;5004213;28;20200;-74
2022/09/01 06:27:12;;;;;;;3.33;3.00;;;;;;;16.09;100.00;96258.63;5015856;28;20200;-74
2022/09/01 06:29:40;;;;;;;3.87;3.47;;;;;;;16.02;100.00;96255.34;5017210;28;20204;-74
2022/09/01 06:32:08;;;;;;;4.67;3.60;;;;;;;16.08;100.00;96262.44;4999019;28;20193;-74
2022/09/01 06:34:41;;;;;;;4.63;3.10;;;;;;;16.16;100.00;96260.03;5002005;28;20274;-74
2022/09/01 06:37:08;;;;;;;6.33;3.67;;;;;;;16.25;100.00;96271.22;5000601;28;20211;-74
2022/09/01 06:39:36;;;;;;;4.80;2.83;;;;;;;16.31;100.00;96270.19;5020654;28;20235;-74
2022/09/01 06:42:03;;;;;;;7.73;2.93;;;;;;;16.30;100.00;96267.72;5018305;28;20203;-74
2022/09/01 06:44:41;;;;;;;4.80;3.43;;;;;;;16.34;100.00;96271.53;5003056;28;20264;-74
2022/09/01 06:47:09;;;;;;;4.80;2.70;;;;;;;16.38;100.00;96272.63;4999428;28;20239;-74
2022/09/01 06:49:39;;;;;;;3.47;2.73;;;;;;;16.41;100.00;96277.56;5011516;28;20235;-74
2022/09/01 06:52:12;;;;;;;4.10;3.07;;;;;;;16.41;100.00;96272.94;5013457;28;20206;-74
2022/09/01 06:54:42;;;;;;;5.33;2.97;;;;;;;16.44;100.00;96277.81;5029432;28;20210;-74
2022/09/01 06:57:10;;;;;;;4.03;3.03;;;;;;;16.49;100.00;96280.59;5008651;28;20227;-74
2022/09/01 06:59:37;;;;;;;3.87;2.73;;;;;;;16.59;100.00;96274.31;4999943;28;20287;-76
2022/09/01 07:02:05;;;;;;;4.00;3.03;;;;;;;16.66;100.00;96276.81;5020693;28;20247;-75
2022/09/01 07:04:56;;;;;;;2.87;2.63;;;;;;;16.69;100.00;96281.72;5006668;28;20234;-76
2022/09/01 07:07:32;;;;;;;3.10;2.77;;;;;;;16.71;100.00;96282.28;5006911;28;20218;-75
2022/09/01 07:10:44;;;;;;;3.93;2.57;;;;;;;16.78;100.00;96286.38;5004333;28;20218;-76
2022/09/01 07:13:21;;;;;;;3.80;2.97;;;;;;;16.84;100.00;96289.94;5003218;28;20212;-75
2022/09/01 07:15:50;;;;;;;3.63;3.00;;;;;;;16.91;100.00;96294.03;5006492;28;20312;-75
2022/09/01 07:18:19;;;;;;;2.67;2.47;;;;;;;16.95;100.00;96294.28;5007660;28;20211;-75
2022/09/01 07:20:50;;;;;;;3.53;2.60;;;;;;;17.02;100.00;96290.19;5016633;28;20318;-75
2022/09/01 07:23:18;;;;;;;5.20;2.83;;;;;;;17.09;100.00;96292.69;5018893;28;20301;-75
2022/09/01 07:25:48;;;;;;;6.17;3.03;;;;;;;17.13;100.00;96291.03;5017625;28;20208;-75
2022/09/01 07:28:31;;;;;;;4.83;3.00;;;;;;;17.22;100.00;96291.31;5013412;28;20204;-75
2022/09/01 07:31:00;;;;;;;4.47;2.90;;;;;;;17.27;100.00;96291.28;5023111;28;20282;-75
2022/09/01 07:33:29;;;;;;;3.40;3.10;;;;;;;17.30;100.00;96291.56;5008386;28;20262;-75
2022/09/01 07:35:58;;;;;;;3.90;2.90;;;;;;;17.37;100.00;96300.28;5021392;28;20282;-75
2022/09/01 07:38:27;;;;;;;4.93;3.43;;;;;;;17.41;100.00;96289.66;5018477;28;20311;-75
2022/09/01 07:40:54;;;;;;;4.40;3.37;;;;;;;17.43;100.00;96292.13;5003758;28;20235;-75
2022/09/01 07:43:43;;;;;;;8.27;4.00;;;;;;;17.52;100.00;96299.47;5006770;28;20665;-75
2022/09/01 07:46:31;;;;;;;4.30;3.80;;;;;;;17.61;100.00;96291.53;4994100;28;20219;-76
2022/09/01 07:49:01;;;;;;;4.93;4.00;;;;;;;17.72;100.00;96295.91;5008345;28;20208;-75
2022/09/01 07:51:31;;;;;;;4.97;4.20;;;;;;;17.76;100.00;96294.28;5005427;28;20269;-75
2022/09/01 07:54:00;;;;;;;5.20;4.70;;;;;;;17.79;100.00;96293.69;5019037;28;20227;-75
2022/09/01 07:56:30;;;;;;;4.93;4.47;;;;;;;17.88;100.00;96294.78;5000022;28;20243;-74
2022/09/01 07:58:58;;;;;;;5.17;4.67;;;;;;;17.99;100.00;96292.81;5012158;28;20205;-75
2022/09/01 08:01:27;;;;;;;7.90;5.47;;;;;;;18.08;100.00;96296.63;5023451;28;20214;-75
2022/09/01 08:03:57;;;;;;;6.60;4.60;;;;;;;18.22;100.00;96285.91;5024459;28;20203;-75
2022/09/01 08:06:27;;;;;;;5.27;4.37;;;;;;;18.28;100.00;96282.88;5010911;28;20214;-75
2022/09/01 08:08:59;;;;;;;6.80;4.57;;;;;;;18.74;100.00;96291.66;5021229;28;20210;-75
2022/09/01 08:11:28;;;;;;;6.43;4.90;;;;;;;19.17;100.00;96289.16;5005411;28;20200;-75
2022/09/01 08:13:58;;;;;;;9.53;4.80;;;;;;;19.54;100.00;96292.16;5023201;28;20199;-75
2022/09/01 08:16:27;;;;;;;6.90;5.38;;;;;;;19.92;100.00;96295.88;5017021;28;20214;-75
2022/09/01 08:18:56;;;;;;;8.88;5.82;;;;;;;20.15;100.00;96296.19;5009060;28;20197;-75
2022/09/01 08:21:28;;;;;;;8.13;5.55;;;;;;;20.26;100.00;96294.94;5015455;28;20238;-75
2022/09/01 08:24:02;;;;;;;7.60;6.20;;;;;;;20.39;100.00;96291.53;5020412;28;20211;-75
2022/09/01 08:26:31;;;;;;;8.85;5.95;;;;;;;20.59;100.00;96284.94;5018129;28;20241;-76
2022/09/01 08:29:00;;;;;;;6.40;5.75;;;;;;;20.77;100.00;96282.22;5022846;28;20204;-75
2022/09/01 08:31:34;;;;;;;6.28;5.57;;;;;;;20.97;100.00;96291.25;5022291;28;20212;-76
2022/09/01 08:34:04;;;;;;;8.05;5.82;;;;;;;21.12;100.00;96294.59;5024496;28;20287;-76
2022/09/01 08:36:31;;;;;;;7.03;5.95;;;;;;;21.20;100.00;96289.56;5020709;28;20290;-75
2022/09/01 08:38:59;;;;;;;9.23;6.13;;;;;;;21.21;100.00;96286.50;5018769;28;20329;-75
2022/09/01 08:41:39;;;;;;;9.25;6.30;;;;;;;21.22;100.00;96281.84;5004731;28;20225;-76
2022/09/01 08:44:16;;;;;;;8.98;6.55;;;;;;;21.08;100.00;96277.09;5018877;28;20208;-76
2022/09/01 08:46:44;;;;;;;7.82;5.90;;;;;;;21.17;100.00;96281.91;5004499;28;20294;-75
2022/09/01 08:49:17;;;;;;;10.15;6.28;;;;;;;21.10;100.00;96291.31;5005763;28;20200;-76
2022/09/01 08:52:11;;;;;;;8.40;6.85;;;;;;;21.15;100.00;96291.25;5003089;28;20230;-76
2022/09/01 08:54:45;;;;;;;7.20;6.50;;;;;;;21.30;100.00;96289.41;5019406;28;20210;-76
2022/09/01 08:57:19;;;;;;;7.18;6.47;;;;;;;21.43;100.00;96291.38;5020057;28;20226;-76
2022/09/01 09:00:22;;;;;;;6.88;5.80;;;;;;;21.50;100.00;96292.63;4996251;28;20258;-75
2022/09/01 09:03:01;;;;;;;11.32;6.60;;;;;;;21.59;100.00;96280.94;5020991;28;20298;-76
2022/09/01 09:05:35;;;;;;;6.63;5.93;;;;;;;21.59;97.24;96292.75;5020560;28;20233;-76
2022/09/01 09:08:20;;;;;;;7.10;5.97;;;;;;;21.43;96.68;96286.72;5003285;28;20241;-75
2022/09/01 09:10:57;;;;;;;7.82;6.22;;;;;;;21.38;97.35;96286.78;5019196;28;20218;-76
2022/09/01 09:13:39;;;;;;;8.02;6.03;;;;;;;21.30;97.38;96278.41;5003697;28;20306;-76
2022/09/01 09:16:10;;;;;;;8.45;6.72;;;;;;;21.26;100.00;96282.88;5004709;28;20287;-76
2022/09/01 09:18:44;;;;;;;7.22;6.32;;;;;;;21.39;100.00;96271.13;5003782;28;20216;-76
2022/09/01 09:21:16;;;;;;;8.98;6.68;;;;;;;21.50;98.88;96275.34;5000472;28;20353;-76
2022/09/01 09:23:47;;;;;;;6.43;5.82;;;;;;;21.59;100.00;96272.69;5016226;28;20216;-75
2022/09/01 09:26:19;;;;;;;7.80;7.00;;;;;;;21.63;99.62;96266.28;4996625;28;20218;-75
2022/09/01 09:28:48;;;;;;;10.00;6.65;;;;;;;21.50;98.35;96265.16;5020595;28;20295;-75
2022/09/01 09:31:31;;;;;;;8.77;6.85;;;;;;;21.57;97.54;96273.00;5003531;28;20211;-75
2022/09/01 09:33:59;;;;;;;8.75;7.40;;;;;;;21.65;95.91;96272.31;5022532;28;20203;-76
2022/09/01 09:36:32;;;;;;;8.02;5.97;;;;;;;21.83;96.93;96260.44;4999338;28;20223;-76
2022/09/01 09:39:12;;;;;;;7.47;5.80;;;;;;;21.85;95.16;96266.44;4999000;28;20239;-76
2022/09/01 09:41:42;;;;;;;6.30;5.68;;;;;;;21.85;94.51;96257.38;5017432;28;20274;-75
2022/09/01 09:44:25;;;;;;;6.90;6.20;;;;;;;21.94;95.20;96265.72;4999923;28;20313;-76
2022/09/01 09:46:52;;;;;;;7.70;6.57;;;;;;;21.79;95.40;96256.63;5013112;28;20302;-76
2022/09/01 09:49:24;;;;;;;6.95;6.10;;;;;;;21.77;93.85;96264.41;5004596;28;20206;-76
2022/09/01 09:51:53;;;;;;;8.20;6.60;;;;;;;21.65;93.85;96261.31;5015554;28;20211;-76
2022/09/01 09:54:26;;;;;;;9.77;6.65;;;;;;;21.66;92.67;96254.69;5018369;28;20213;-77
2022/09/01 09:57:11;;;;;;;8.63;5.97;;;;;;;21.67;93.92;96250.84;5010777;28;20228;-76
2022/09/01 09:59:42;;;;;;;8.05;7.05;;;;;;;21.59;94.89;96254.28;5013041;28;20208;-75
2022/09/01 10:02:32;;;;;;;6.43;5.82;;;;;;;21.67;95.16;96250.84;4997367;28;20219;-76
2022/09/01 10:05:01;;;;;;;7.32;6.63;;;;;;;21.87;95.85;96250.44;5005748;28;20242;-76
2022/09/01 10:07:32;;;;;;;7.28;6.57;;;;;;;22.04;96.35;96243.53;5005720;28;20203;-76
2022/09/01 10:10:01;;;;;;;7.70;6.65;;;;;;;21.96;93.47;96242.28;5021615;28;20200;-76
2022/09/01 10:12:30;;;;;;;6.47;5.88;;;;;;;21.99;93.01;96241.72;5016688;28;20254;-75
2022/09/01 10:15:03;;;;;;;9.77;7.30;;;;;;;21.90;95.09;96238.84;4996586;28;20220;-76
2022/09/01 10:17:34;;;;;;;9.90;6.78;;;;;;;21.86;94.11;96243.31;5015921;28;20301;-75
2022/09/01 10:20:06;;;;;;;7.35;6.25;;;;;;;21.93;92.82;96242.09;5021682;28;20223;-76
2022/09/01 10:22:34;;;;;;;7.80;6.85;;;;;;;21.79;93.91;96240.16;5020270;28;20220;-76
2022/09/01 10:25:03;;;;;;;8.43;6.80;;;;;;;22.04;94.65;96224.31;5022823;28;20203;-76
2022/09/01 10:27:33;;;;;;;8.38;7.57;;;;;;;22.15;95.52;96236.72;5006314;28;20219;-76
2022/09/01 10:30:07;;;;;;;8.43;6.75;;;;;;;22.26;92.00;96229.91;5002710;28;20212;-77
2022/09/01 10:32:40;;;;;;;8.10;5.88;;;;;;;22.27;91.59;96226.84;5000129;28;20200;-76
2022/09/01 10:35:11;;;;;;;7.50;6.75;;;;;;;22.37;92.51;96225.00;5006951;28;20219;-76
2022/09/01 10:37:40;;;;;;;7.53;6.40;;;;;;;22.42;90.33;96219.38;5023801;28;20207;-76
2022/09/01 10:40:34;;;;;;;6.57;5.88;;;;;;;22.33;90.80;96233.03;5010931;28;20223;-76
2022/09/01 10:43:30;;;;;;;7.75;6.80;;;;;;;22.42;92.08;96225.69;5012454;28;20188;-76
2022/09/01 10:45:58;;;;;;;6.65;5.95;;;;;;;22.51;90.46;96217.53;5006999;28;20231;-76
2022/09/01 10:48:32;;;;;;;8.30;6.53;;;;;;;22.53;88.25;96223.53;5000441;28;20212;-75
2022/09/01 10:51:36;;;;;;;8.73;6.10;;;;;;;22.62;89.81;96219.75;5014806;28;20206;-76
2022/09/01 10:54:04;;;;;;;6.55;5.85;;;;;;;22.64;88.13;96213.91;5003133;28;20259;-76
2022/09/01 10:56:39;;;;;;;6.47;5.65;;;;;;;22.94;86.66;96217.94;5004200;28;20223;-76
2022/09/01 10:59:09;;;;;;;7.88;6.50;;;;;;;22.94;88.15;96215.19;5001475;28;20207;-76
2022/09/01 11:02:14;;;;;;;6.60;6.00;;;;;;;22.93;86.58;96217.13;5010942;28;20234;-76
2022/09/01 11:05:11;;;;;;;6.95;5.88;;;;;;;23.02;87.12;96214.44;5008730;28;20195;-76
2022/09/01 11:07:39;;;;;;;7.25;6.47;;;;;;;22.99;85.44;96212.28;5007905;28;20262;-76
2022/09/01 11:10:31;;;;;;;6.35;5.75;;;;;;;22.90;86.88;96201.22;5022836;28;20203;-76
2022/09/01 11:13:21;;;;;;;7.20;5.40;;;;;;;23.11;85.30;96207.03;5020793;28;20296;-76
2022/09/01 11:15:49;;;;;;;8.50;5.57;;;;;;;23.20;85.35;96204.34;5002932;28;20219;-76
2022/09/01 11:18:24;;;;;;;7.68;5.45;;;;;;;23.12;83.29;96208.69;5001529;28;20200;-76
2022/09/01 11:20:51;;;;;;;6.28;5.60;;;;;;;23.17;83.18;96204.97;5017162;28;20219;-76
2022/09/01 11:23:25;;;;;;;7.00;6.30;;;;;;;23.10;81.87;96210.94;5004469;28;20212;-75
2022/09/01 11:25:57;;;;;;;6.72;5.22;;;;;;;23.23;83.26;96206.47;5013065;28;20215;-75
2022/09/01 11:28:45;;;;;;;6.03;5.50;;;;;;;23.17;84.26;96208.53;5003229;28;20210;-75
2022/09/01 11:31:39;;;;;;;7.07;5.03;;;;;;;23.19;81.30;96199.97;5025328;28;20295;-76
2022/09/01 11:34:18;;;;;;;5.97;5.47;;;;;;;23.48;80.53;96194.78;4992251;28;20214;-77
2022/09/01 11:36:59;;;;;;;5.78;4.70;;;;;;;23.54;79.41;96199.06;4994503;28;20218;-76
2022/09/01 11:39:41;;;;;;;5.80;5.20;;;;;;;23.64;80.33;96193.28;5021803;28;20253;-76
2022/09/01 11:42:17;;;;;;;5.88;5.13;;;;;;;23.77;79.04;96194.31;5019224;28;20223;-76
2022/09/01 11:44:50;;;;;;;6.45;5.18;;;;;;;23.78;78.45;96193.19;5019336;28;20207;-76
2022/09/01 11:47:21;;;;;;;6.03;4.95;;;;;;;23.88;78.49;96181.88;5019954;28;20215;-77
2022/09/01 11:49:55;;;;;;;4.95;4.53;;;;;;;24.03;79.17;96197.97;5015891;28;20211;-76
2022/09/01 11:52:24;;;;;;;6.32;4.85;;;;;;;23.91;77.37;96196.94;4990588;28;20234;-77